Time;durP1;ratioP1;P1;durP2;ratioP2;P2;SDS_P1;SDS_P2;PMS_P1;PMS_P2;Temp;Humidity;BMP_temperature;BMP_pressure;BME280_temperature;BME280_humidity;BME280_pressure;Samples;Min_cycle;Max_cycle;Signal;HPM_P1;HPM_P2
2024/02/10 00:00:15;;;;;;;;;;;;;;;;;;4945554;28;4733;-53
2024/02/10 00:02:40;;;;;;;;;;;;;;;;;;4963435;28;5107;-52
2024/02/10 00:05:06;;;;;;;;;;;;;;;;;;4967630;28;5091;-53
2024/02/10 00:07:32;;;;;;;;;;;;;;;;;;4963595;28;4622;-52
2024/02/10 00:09:57;;;;;;;;;;;;;;;;;;4965100;28;1314;-53
2024/02/10 00:12:23;;;;;;;;;;;;;;;;;;4964423;28;4477;-53
2024/02/10 00:14:49;;;;;;;;;;;;;;;;;;4967722;28;4965;-53
2024/02/10 00:17:15;;;;;;;;;;;;;;;;;;4960096;28;5214;-53
2024/02/10 00:19:46;;;;;;;;;;;;;;;;;;4962916;28;4545;-53
2024/02/10 00:22:12;;;;;;;;;;;;;;;;;;4960393;28;3389;-53
2024/02/10 00:24:38;;;;;;;;;;;;;;;;;;4960150;28;5304;-54
2024/02/10 00:27:04;;;;;;;;;;;;;;;;;;4961759;28;4654;-54
2024/02/10 00:29:30;;;;;;;;;;;;;;;;;;4960733;28;5126;-55
2024/02/10 00:31:55;;;;;;;;;;;;;;;;;;4963888;28;5269;-54
2024/02/10 00:34:23;;;;;;;;;;;;;;;;;;4964082;28;4893;-54
2024/02/10 00:36:48;;;;;;;;;;;;;;;;;;4965796;28;3601;-54
2024/02/10 00:39:13;;;;;;;;;;;;;;;;;;4961519;28;4639;-52
2024/02/10 00:41:39;;;;;;;;;;;;;;;;;;4959165;28;5102;-53
2024/02/10 00:44:04;;;;;;;;;;;;;;;;;;4962272;28;5070;-53
2024/02/10 00:46:31;;;;;;;;;;;;;;;;;;4959840;28;4744;-53
2024/02/10 00:48:57;;;;;;;;;;;;;;;;;;4959335;28;3458;-55
2024/02/10 00:51:22;;;;;;;;;;;;;;;;;;4964844;28;4530;-53
2024/02/10 00:53:47;;;;;;;;;;;;;;;;;;4956349;28;4837;-52
2024/02/10 00:56:13;;;;;;;;;;;;;;;;;;4963403;28;4549;-53
2024/02/10 00:58:40;;;;;;;;;;;;;;;;;;4964541;28;4623;-54
2024/02/10 01:01:12;;;;;;;;;;;;;;;;;;4969045;28;1095;-54
2024/02/10 01:03:43;;;;;;;;;;;;;;;;;;4950399;28;4843;-54
2024/02/10 01:06:09;;;;;;;;;;;;;;;;;;4964145;28;5122;-52
2024/02/10 01:08:35;;;;;;;;;;;;;;;;;;4956607;28;4587;-54
2024/02/10 01:11:01;;;;;;;;;;;;;;;;;;4954344;28;4722;-53
2024/02/10 01:13:27;;;;;;;;;;;;;;;;;;4956908;28;5078;-49
2024/02/10 01:15:54;;;;;;;;;;;;;;;;;;4948000;28;1439;-52
2024/02/10 01:18:20;;;;;;;;;;;;;;;;;;4964057;28;5135;-54
2024/02/10 01:20:45;;;;;;;;;;;;;;;;;;4958090;28;5111;-54
2024/02/10 01:23:11;;;;;;;;;;;;;;;;;;4957023;28;4712;-52
2024/02/10 01:25:36;;;;;;;;;;;;;;;;;;4963344;28;5199;-53
2024/02/10 01:28:02;;;;;;;;;;;;;;;;;;4959169;28;3549;-54
2024/02/10 01:30:27;;;;;;;;;;;;;;;;;;4962403;28;5201;-52
2024/02/10 01:32:57;;;;;;;;;;;;;;;;;;4960937;28;5163;-54
2024/02/10 01:35:23;;;;;;;;;;;;;;;;;;4963514;28;5166;-53
2024/02/10 01:37:49;;;;;;;;;;;;;;;;;;4962378;28;5344;-54
2024/02/10 01:40:16;;;;;;;;;;;;;;;;;;4960592;28;3238;-54
2024/02/10 01:42:41;;;;;;;;;;;;;;;;;;4963730;28;4995;-55
2024/02/10 01:45:13;;;;;;;;;;;;;;;;;;4967256;28;5006;-55
2024/02/10 01:47:39;;;;;;;;;;;;;;;;;;4958181;28;5033;-53
2024/02/10 01:50:05;;;;;;;;;;;;;;;;;;4958701;28;4488;-55
2024/02/10 01:52:30;;;;;;;;;;;;;;;;;;4963121;28;4808;-51
2024/02/10 01:54:56;;;;;;;;;;;;;;;;;;4972065;28;1260;-52
2024/02/10 01:57:21;;;;;;;;;;;;;;;;;;4968040;28;5372;-51
2024/02/10 01:59:47;;;;;;;;;;;;;;;;;;4965790;28;4984;-52
2024/02/10 02:02:14;;;;;;;;;;;;;;;;;;4963283;28;5086;-54
2024/02/10 02:04:39;;;;;;;;;;;;;;;;;;4961850;28;5102;-54
2024/02/10 02:07:11;;;;;;;;;;;;;;;;;;4962134;28;3389;-53
2024/02/10 02:09:36;;;;;;;;;;;;;;;;;;4945845;28;5033;-53
2024/02/10 02:12:07;;;;;;;;;;;;;;;;;;4968448;28;5099;-53
2024/02/10 02:14:35;;;;;;;;;;;;;;;;;;4958300;28;5446;-54
2024/02/10 02:17:01;;;;;;;;;;;;;;;;;;4960615;28;4982;-55
2024/02/10 02:19:27;;;;;;;;;;;;;;;;;;4965146;28;5070;-52
2024/02/10 02:21:52;;;;;;;;;;;;;;;;;;4965147;28;3381;-54
2024/02/10 02:24:18;;;;;;;;;;;;;;;;;;4966218;28;5188;-54
2024/02/10 02:26:43;;;;;;;;;;;;;;;;;;4961691;28;5314;-54
2024/02/10 02:29:09;;;;;;;;;;;;;;;;;;4967035;28;4563;-54
2024/02/10 02:31:35;;;;;;;;;;;;;;;;;;4963769;28;5129;-54
2024/02/10 02:34:02;;;;;;;;;;;;;;;;;;4966921;28;3392;-54
2024/02/10 02:36:28;;;;;;;;;;;;;;;;;;4966680;28;4692;-55
2024/02/10 02:38:53;;;;;;;;;;;;;;;;;;4961639;28;5232;-51
2024/02/10 02:41:19;;;;;;;;;;;;;;;;;;4963473;28;5065;-53
2024/02/10 02:43:45;;;;;;;;;;;;;;;;;;4967153;28;5123;-55
2024/02/10 02:46:13;;;;;;;;;;;;;;;;;;4963717;28;3440;-53
2024/02/10 02:48:39;;;;;;;;;;;;;;;;;;4969422;28;4599;-55
2024/02/10 02:51:05;;;;;;;;;;;;;;;;;;4965048;28;5167;-54
2024/02/10 02:53:31;;;;;;;;;;;;;;;;;;4967308;28;4576;-55
2024/02/10 02:55:58;;;;;;;;;;;;;;;;;;4968790;28;5074;-54
2024/02/10 02:58:23;;;;;;;;;;;;;;;;;;4965856;28;4605;-55
2024/02/10 03:00:49;;;;;;;;;;;;;;;;;;4957869;28;3556;-55
2024/02/10 03:03:15;;;;;;;;;;;;;;;;;;4954757;28;4526;-54
2024/02/10 03:05:40;;;;;;;;;;;;;;;;;;4947263;28;4981;-54
2024/02/10 03:08:06;;;;;;;;;;;;;;;;;;4954541;28;4887;-51
2024/02/10 03:10:32;;;;;;;;;;;;;;;;;;4966105;28;4565;-54
2024/02/10 03:12:57;;;;;;;;;;;;;;;;;;4964626;28;1128;-54
2024/02/10 03:15:23;;;;;;;;;;;;;;;;;;4969331;28;4543;-56
2024/02/10 03:17:49;;;;;;;;;;;;;;;;;;4951823;28;5224;-54
2024/02/10 03:20:21;;;;;;;;;;;;;;;;;;4965688;28;5288;-55
2024/02/10 03:22:53;;;;;;;;;;;;;;;;;;4960197;28;4711;-54
2024/02/10 03:25:19;;;;;;;;;;;;;;;;;;4961264;28;5170;-54
2024/02/10 03:27:44;;;;;;;;;;;;;;;;;;4962353;28;1294;-55
2024/02/10 03:30:10;;;;;;;;;;;;;;;;;;4966108;28;5268;-53
2024/02/10 03:32:35;;;;;;;;;;;;;;;;;;4952752;28;4592;-53
2024/02/10 03:35:00;;;;;;;;;;;;;;;;;;4966771;28;4520;-54
2024/02/10 03:37:28;;;;;;;;;;;;;;;;;;4966589;28;4608;-54
2024/02/10 03:39:54;;;;;;;;;;;;;;;;;;4967083;28;1190;-54
2024/02/10 03:42:19;;;;;;;;;;;;;;;;;;4959187;28;4740;-55
2024/02/10 03:44:46;;;;;;;;;;;;;;;;;;4961636;28;5077;-53
2024/02/10 03:47:11;;;;;;;;;;;;;;;;;;4963198;28;5100;-52
2024/02/10 03:49:37;;;;;;;;;;;;;;;;;;4968886;28;5080;-51
2024/02/10 03:52:02;;;;;;;;;;;;;;;;;;4966832;28;3401;-55
2024/02/10 03:54:28;;;;;;;;;;;;;;;;;;4958671;28;4958;-51
2024/02/10 03:56:53;;;;;;;;;;;;;;;;;;4948581;28;4958;-53
2024/02/10 03:59:18;;;;;;;;;;;;;;;;;;4963638;28;4757;-51
2024/02/10 04:01:44;;;;;;;;;;;;;;;;;;4958896;28;5141;-51
2024/02/10 04:04:09;;;;;;;;;;;;;;;;;;4964757;28;1253;-55
2024/02/10 04:06:35;;;;;;;;;;;;;;;;;;4967327;28;5043;-53
2024/02/10 04:09:01;;;;;;;;;;;;;;;;;;4967204;28;4476;-54
2024/02/10 04:11:26;;;;;;;;;;;;;;;;;;4963250;28;4663;-54
2024/02/10 04:13:52;;;;;;;;;;;;;;;;;;4967795;28;5130;-54
2024/02/10 04:16:17;;;;;;;;;;;;;;;;;;4964507;28;5449;-55
2024/02/10 04:18:43;;;;;;;;;;;;;;;;;;4958439;28;1914;-54
2024/02/10 04:21:08;;;;;;;;;;;;;;;;;;4944562;28;4542;-54
2024/02/10 04:23:34;;;;;;;;;;;;;;;;;;4956266;28;4564;-55
2024/02/10 04:26:00;;;;;;;;;;;;;;;;;;4964885;28;4508;-53
2024/02/10 04:28:25;;;;;;;;;;;;;;;;;;4965868;28;4525;-55
2024/02/10 04:30:53;;;;;;;;;;;;;;;;;;4963212;28;3602;-52
2024/02/10 04:33:19;;;;;;;;;;;;;;;;;;4964875;28;4709;-55
2024/02/10 04:35:44;;;;;;;;;;;;;;;;;;4968279;28;4798;-55
2024/02/10 04:38:09;;;;;;;;;;;;;;;;;;4957383;28;5257;-54
2024/02/10 04:40:35;;;;;;;;;;;;;;;;;;4947552;28;5128;-55
2024/02/10 04:43:00;;;;;;;;;;;;;;;;;;4964337;28;3420;-55
2024/02/10 04:45:26;;;;;;;;;;;;;;;;;;4965202;28;5325;-55
2024/02/10 04:47:51;;;;;;;;;;;;;;;;;;4956156;28;4489;-54
2024/02/10 04:50:17;;;;;;;;;;;;;;;;;;4951375;28;5049;-53
2024/02/10 04:52:43;;;;;;;;;;;;;;;;;;4961713;28;4538;-54
2024/02/10 04:55:08;;;;;;;;;;;;;;;;;;4959368;28;1154;-54
2024/02/10 04:57:34;;;;;;;;;;;;;;;;;;4948199;28;5077;-55
2024/02/10 05:00:03;;;;;;;;;;;;;;;;;;4962368;28;5030;-53
2024/02/10 05:02:28;;;;;;;;;;;;;;;;;;4964156;28;5187;-51
2024/02/10 05:04:54;;;;;;;;;;;;;;;;;;4962820;28;5312;-54
2024/02/10 05:07:19;;;;;;;;;;;;;;;;;;4967781;28;4644;-54
2024/02/10 05:09:45;;;;;;;;;;;;;;;;;;4962943;28;3460;-54
2024/02/10 05:12:10;;;;;;;;;;;;;;;;;;4963350;28;4498;-51
2024/02/10 05:14:35;;;;;;;;;;;;;;;;;;4965511;28;5073;-54
2024/02/10 05:17:01;;;;;;;;;;;;;;;;;;4958291;28;5093;-54
2024/02/10 05:19:27;;;;;;;;;;;;;;;;;;4961617;28;4984;-61
2024/02/10 05:21:52;;;;;;;;;;;;;;;;;;4967039;28;1375;-53
2024/02/10 05:24:17;;;;;;;;;;;;;;;;;;4960094;28;4844;-51
2024/02/10 05:26:43;;;;;;;;;;;;;;;;;;4968993;28;4990;-52
2024/02/10 05:29:10;;;;;;;;;;;;;;;;;;4965693;28;5027;-52
2024/02/10 05:31:38;;;;;;;;;;;;;;;;;;4963727;28;5117;-53
2024/02/10 05:34:03;;;;;;;;;;;;;;;;;;4967144;28;3332;-52
2024/02/10 05:36:34;;;;;;;;;;;;;;;;;;4970146;28;4635;-52
2024/02/10 05:39:04;;;;;;;;;;;;;;;;;;4962664;28;4672;-53
2024/02/10 05:41:29;;;;;;;;;;;;;;;;;;4966871;28;5241;-53
2024/02/10 05:43:54;;;;;;;;;;;;;;;;;;4962247;28;5013;-55
2024/02/10 05:46:20;;;;;;;;;;;;;;;;;;4971605;28;4500;-54
2024/02/10 05:48:45;;;;;;;;;;;;;;;;;;4967851;28;3548;-53
2024/02/10 05:51:11;;;;;;;;;;;;;;;;;;4969987;28;4488;-54
2024/02/10 05:53:37;;;;;;;;;;;;;;;;;;4967297;28;4573;-54
2024/02/10 05:56:03;;;;;;;;;;;;;;;;;;4968741;28;5135;-52
2024/02/10 05:58:29;;;;;;;;;;;;;;;;;;4963727;28;5258;-53
2024/02/10 06:00:54;;;;;;;;;;;;;;;;;;4970318;28;1311;-52
2024/02/10 06:03:20;;;;;;;;;;;;;;;;;;4962337;28;5122;-53
2024/02/10 06:05:45;;;;;;;;;;;;;;;;;;4970186;28;5106;-54
2024/02/10 06:08:12;;;;;;;;;;;;;;;;;;4965656;28;5154;-52
2024/02/10 06:10:37;;;;;;;;;;;;;;;;;;4965271;28;5094;-53
2024/02/10 06:13:03;;;;;;;;;;;;;;;;;;4971771;28;1150;-54
2024/02/10 06:15:29;;;;;;;;;;;;;;;;;;4964948;28;4964;-53
2024/02/10 06:17:55;;;;;;;;;;;;;;;;;;4960548;28;4734;-54
2024/02/10 06:20:23;;;;;;;;;;;;;;;;;;4969884;28;5033;-54
2024/02/10 06:22:49;;;;;;;;;;;;;;;;;;4967661;28;4829;-54
2024/02/10 06:25:15;;;;;;;;;;;;;;;;;;4951212;28;3213;-54
2024/02/10 06:27:45;;;;;;;;;;;;;;;;;;4939474;28;4626;-53
2024/02/10 06:30:17;;;;;;;;;;;;;;;;;;4964610;28;4544;-52
2024/02/10 06:32:43;;;;;;;;;;;;;;;;;;4969901;28;5215;-52
2024/02/10 06:35:09;;;;;;;;;;;;;;;;;;4969078;28;5157;-53
2024/02/10 06:37:35;;;;;;;;;;;;;;;;;;4966665;28;5123;-54
2024/02/10 06:40:04;;;;;;;;;;;;;;;;;;4954733;28;3511;-53
2024/02/10 06:42:34;;;;;;;;;;;;;;;;;;4962885;28;4527;-54
2024/02/10 06:45:00;;;;;;;;;;;;;;;;;;4962903;28;5262;-55
2024/02/10 06:47:25;;;;;;;;;;;;;;;;;;4963874;28;4646;-53
2024/02/10 06:49:51;;;;;;;;;;;;;;;;;;4969218;28;4569;-53
2024/02/10 06:52:16;;;;;;;;;;;;;;;;;;4971003;28;1064;-54
2024/02/10 06:54:42;;;;;;;;;;;;;;;;;;4966293;28;4406;-53
2024/02/10 06:57:08;;;;;;;;;;;;;;;;;;4969191;28;4753;-52
2024/02/10 06:59:33;;;;;;;;;;;;;;;;;;4970029;28;4504;-52
2024/02/10 07:01:59;;;;;;;;;;;;;;;;;;4960416;28;5070;-54
2024/02/10 07:04:24;;;;;;;;;;;;;;;;;;4954762;28;5234;-54
2024/02/10 07:06:53;;;;;;;;;;;;;;;;;;4965501;28;3530;-54
2024/02/10 07:09:21;;;;;;;;;;;;;;;;;;4931566;28;4794;-54
2024/02/10 07:11:48;;;;;;;;;;;;;;;;;;4967328;28;4573;-53
2024/02/10 07:14:13;;;;;;;;;;;;;;;;;;4966025;28;5086;-53
2024/02/10 07:16:38;;;;;;;;;;;;;;;;;;4967929;28;4577;-54
2024/02/10 07:19:06;;;;;;;;;;;;;;;;;;4962903;28;3545;-56
2024/02/10 07:21:33;;;;;;;;;;;;;;;;;;4960224;28;5066;-54
2024/02/10 07:24:05;;;;;;;;;;;;;;;;;;4957047;28;5564;-57
2024/02/10 07:26:31;;;;;;;;;;;;;;;;;;4968243;28;4864;-57
2024/02/10 07:28:58;;;;;;;;;;;;;;;;;;4965465;28;4709;-57
2024/02/10 07:31:24;;;;;;;;;;;;;;;;;;4963159;28;4781;-58
2024/02/10 07:33:50;;;;;;;;;;;;;;;;;;4950926;28;1216;-57
2024/02/10 07:36:16;;;;;;;;;;;;;;;;;;4967630;28;4653;-58
2024/02/10 07:38:42;;;;;;;;;;;;;;;;;;4970386;28;5111;-57
2024/02/10 07:41:07;;;;;;;;;;;;;;;;;;4963073;28;4904;-57
2024/02/10 07:43:32;;;;;;;;;;;;;;;;;;4963103;28;4542;-57
2024/02/10 07:45:58;;;;;;;;;;;;;;;;;;4957669;28;3481;-57
2024/02/10 07:48:23;;;;;;;;;;;;;;;;;;4962707;28;4857;-57
2024/02/10 07:50:49;;;;;;;;;;;;;;;;;;4947274;28;4553;-62
2024/02/10 07:53:14;;;;;;;;;;;;;;;;;;4969577;28;4702;-62
2024/02/10 07:55:42;;;;;;;;;;;;;;;;;;4956934;28;5481;-61
2024/02/10 07:58:09;;;;;;;;;;;;;;;;;;4956005;28;3340;-60
2024/02/10 08:00:34;;;;;;;;;;;;;;;;;;4961859;28;4490;-62
2024/02/10 08:03:03;;;;;;;;;;;;;;;;;;4964421;28;4537;-61
2024/02/10 08:05:30;;;;;;;;;;;;;;;;;;4961464;28;5117;-58
2024/02/10 08:08:00;;;;;;;;;;;;;;;;;;4958321;28;4534;-57
2024/02/10 08:10:25;;;;;;;;;;;;;;;;;;4961503;28;5268;-57
2024/02/10 08:12:51;;;;;;;;;;;;;;;;;;4967262;28;1276;-57
2024/02/10 08:15:17;;;;;;;;;;;;;;;;;;4962988;28;5021;-59
2024/02/10 08:17:43;;;;;;;;;;;;;;;;;;4937609;28;4569;-60
2024/02/10 08:20:12;;;;;;;;;;;;;;;;;;4943470;28;4560;-59
2024/02/10 08:22:37;;;;;;;;;;;;;;;;;;4956619;28;5125;-58
2024/02/10 08:25:04;;;;;;;;;;;;;;;;;;4960922;28;1087;-60
2024/02/10 08:27:31;;;;;;;;;;;;;;;;;;4958700;28;4489;-61
2024/02/10 08:29:58;;;;;;;;;;;;;;;;;;4954336;28;4858;-61
2024/02/10 08:32:23;;;;;;;;;;;;;;;;;;4959874;28;5141;-61
2024/02/10 08:34:50;;;;;;;;;;;;;;;;;;4957779;28;5205;-61
2024/02/10 08:37:16;;;;;;;;;;;;;;;;;;4960769;28;3613;-61
2024/02/10 08:39:44;;;;;;;;;;;;;;;;;;4961243;28;5031;-59
2024/02/10 08:42:13;;;;;;;;;;;;;;;;;;4961443;28;5048;-60
2024/02/10 08:44:38;;;;;;;;;;;;;;;;;;4964844;28;5025;-60
2024/02/10 08:47:05;;;;;;;;;;;;;;;;;;4948541;28;5313;-61
2024/02/10 08:49:31;;;;;;;;;;;;;;;;;;4962828;28;5193;-63
2024/02/10 08:51:56;;;;;;;;;;;;;;;;;;4962442;28;1314;-62
2024/02/10 08:54:22;;;;;;;;;;;;;;;;;;4956802;28;4650;-62
2024/02/10 08:56:47;;;;;;;;;;;;;;;;;;4964629;28;4515;-62
2024/02/10 08:59:12;;;;;;;;;;;;;;;;;;4962249;28;5119;-62
2024/02/10 09:01:41;;;;;;;;;;;;;;;;;;4935637;28;5280;-66
2024/02/10 09:04:06;;;;;;;;;;;;;;;;;;4951987;28;3318;-66
2024/02/10 09:06:32;;;;;;;;;;;;;;;;;;4960436;28;5204;-67
2024/02/10 09:08:57;;;;;;;;;;;;;;;;;;4952256;28;5204;-66
2024/02/10 09:11:22;;;;;;;;;;;;;;;;;;4964879;28;4678;-68
2024/02/10 09:13:48;;;;;;;;;;;;;;;;;;4955955;28;5066;-69
2024/02/10 09:16:14;;;;;;;;;;;;;;;;;;4953319;28;3695;-67
2024/02/10 09:18:42;;;;;;;;;;;;;;;;;;4960137;28;4449;-66
2024/02/10 09:21:08;;;;;;;;;;;;;;;;;;4954208;28;5122;-63
2024/02/10 09:23:33;;;;;;;;;;;;;;;;;;4936272;28;4766;-64
2024/02/10 09:25:59;;;;;;;;;;;;;;;;;;4953868;28;5055;-66
2024/02/10 09:28:29;;;;;;;;;;;;;;;;;;4963774;28;4749;-66
2024/02/10 09:30:54;;;;;;;;;;;;;;;;;;4950939;28;3882;-65
2024/02/10 09:33:20;;;;;;;;;;;;;;;;;;4957831;28;4590;-57
2024/02/10 09:35:46;;;;;;;;;;;;;;;;;;4948113;28;5216;-61
2024/02/10 09:38:12;;;;;;;;;;;;;;;;;;4927058;28;5127;-60
2024/02/10 09:40:39;;;;;;;;;;;;;;;;;;4958940;28;5173;-63
2024/02/10 09:43:05;;;;;;;;;;;;;;;;;;4965593;28;3621;-61
2024/02/10 09:45:30;;;;;;;;;;;;;;;;;;4943461;28;5022;-64
2024/02/10 09:47:55;;;;;;;;;;;;;;;;;;4955299;28;5140;-66
2024/02/10 09:50:21;;;;;;;;;;;;;;;;;;4940791;28;4991;-67
2024/02/10 09:52:47;;;;;;;;;;;;;;;;;;4950133;28;4617;-65
2024/02/10 09:55:14;;;;;;;;;;;;;;;;;;4961997;28;3472;-65
2024/02/10 09:57:41;;;;;;;;;;;;;;;;;;4953338;28;4887;-69
2024/02/10 10:00:08;;;;;;;;;;;;;;;;;;4945771;28;5069;-71
2024/02/10 10:02:33;;;;;;;;;;;;;;;;;;4952746;28;5244;-65
2024/02/10 10:04:59;;;;;;;;;;;;;;;;;;4954255;28;4956;-63
2024/02/10 10:07:24;;;;;;;;;;;;;;;;;;4954450;28;5137;-66
2024/02/10 10:09:50;;;;;;;;;;;;;;;;;;4951041;28;4017;-69
2024/02/10 10:12:18;;;;;;;;;;;;;;;;;;4954139;28;5181;-68
2024/02/10 10:14:43;;;;;;;;;;;;;;;;;;4957473;28;5492;-68
2024/02/10 10:17:13;;;;;;;;;;;;;;;;;;4946311;28;4524;-71
2024/02/10 10:19:39;;;;;;;;;;;;;;;;;;4961717;28;5097;-65
2024/02/10 10:22:04;;;;;;;;;;;;;;;;;;4943428;28;3477;-68
2024/02/10 10:24:29;;;;;;;;;;;;;;;;;;4964571;28;5139;-67
2024/02/10 10:26:55;;;;;;;;;;;;;;;;;;4959731;28;5184;-67
2024/02/10 10:29:21;;;;;;;;;;;;;;;;;;4965235;28;5183;-67
2024/02/10 10:31:49;;;;;;;;;;;;;;;;;;4961832;28;4970;-66
2024/02/10 10:34:18;;;;;;;;;;;;;;;;;;4944253;28;4056;-63
2024/02/10 10:36:43;;;;;;;;;;;;;;;;;;4964652;28;4943;-62
2024/02/10 10:39:09;;;;;;;;;;;;;;;;;;4941517;28;4514;-67
2024/02/10 10:41:36;;;;;;;;;;;;;;;;;;4945021;28;4627;-62
2024/02/10 10:44:01;;;;;;;;;;;;;;;;;;4944875;28;4566;-60
2024/02/10 10:46:26;;;;;;;;;;;;;;;;;;4943166;28;5183;-63
2024/02/10 10:48:52;;;;;;;;;;;;;;;;;;4949325;28;2393;-62
2024/02/10 10:51:17;;;;;;;;;;;;;;;;;;4966316;28;5174;-62
2024/02/10 10:53:45;;;;;;;;;;;;;;;;;;4965189;28;5218;-61
2024/02/10 10:56:11;;;;;;;;;;;;;;;;;;4967810;28;5438;-61
2024/02/10 10:58:40;;;;;;;;;;;;;;;;;;4933646;28;4760;-61
2024/02/10 11:01:05;;;;;;;;;;;;;;;;;;4968313;28;1094;-66
2024/02/10 11:03:31;;;;;;;;;;;;;;;;;;4949712;28;4515;-61
2024/02/10 11:05:56;;;;;;;;;;;;;;;;;;4930043;29;5257;-66
2024/02/10 11:08:25;;;;;;;;;;;;;;;;;;4969741;28;5107;-62
2024/02/10 11:10:50;;;;;;;;;;;;;;;;;;4968690;28;4997;-68
2024/02/10 11:13:21;;;;;;;;;;;;;;;;;;4965639;28;3690;-65
2024/02/10 11:15:46;;;;;;;;;;;;;;;;;;4950848;28;4846;-63
2024/02/10 11:18:17;;;;;;;;;;;;;;;;;;4966367;28;4450;-64
2024/02/10 11:20:42;;;;;;;;;;;;;;;;;;4965802;28;5138;-64
2024/02/10 11:23:10;;;;;;;;;;;;;;;;;;4963254;28;5121;-64
2024/02/10 11:25:36;;;;;;;;;;;;;;;;;;4967214;28;5711;-65
2024/02/10 11:28:02;;;;;;;;;;;;;;;;;;4968607;28;1122;-64
2024/02/10 11:30:31;;;;;;;;;;;;;;;;;;4966496;28;5167;-64
2024/02/10 11:32:56;;;;;;;;;;;;;;;;;;4960078;28;5052;-67
2024/02/10 11:35:22;;;;;;;;;;;;;;;;;;4958907;28;5001;-63
2024/02/10 11:37:47;;;;;;;;;;;;;;;;;;4948390;28;4788;-65
2024/02/10 11:40:19;;;;;;;;;;;;;;;;;;4968686;28;1125;-65
2024/02/10 11:42:44;;;;;;;;;;;;;;;;;;4957525;28;4540;-67
2024/02/10 11:45:10;;;;;;;;;;;;;;;;;;4964592;28;4573;-69
2024/02/10 11:47:36;;;;;;;;;;;;;;;;;;4965140;28;5076;-68
2024/02/10 11:50:01;;;;;;;;;;;;;;;;;;4967302;28;4690;-68
2024/02/10 11:52:29;;;;;;;;;;;;;;;;;;4945583;28;4585;-69
2024/02/10 11:54:54;;;;;;;;;;;;;;;;;;4966831;28;3458;-67
2024/02/10 11:57:22;;;;;;;;;;;;;;;;;;4966185;28;5216;-68
2024/02/10 11:59:47;;;;;;;;;;;;;;;;;;4961769;28;4550;-68
2024/02/10 12:02:14;;;;;;;;;;;;;;;;;;4948525;28;5183;-67
2024/02/10 12:04:41;;;;;;;;;;;;;;;;;;4966898;28;5133;-68
2024/02/10 12:07:07;;;;;;;;;;;;;;;;;;4966703;28;2473;-69
2024/02/10 12:09:32;;;;;;;;;;;;;;;;;;4949553;28;5169;-67
2024/02/10 12:12:01;;;;;;;;;;;;;;;;;;4967720;28;4553;-69
2024/02/10 12:14:27;;;;;;;;;;;;;;;;;;4959355;28;4483;-69
2024/02/10 12:17:02;;;;;;;;;;;;;;;;;;4964555;28;5054;-66
2024/02/10 12:19:27;;;;;;;;;;;;;;;;;;4962562;28;5176;-69
2024/02/10 12:21:53;;;;;;;;;;;;;;;;;;4963857;28;3988;-64
2024/02/10 12:24:21;;;;;;;;;;;;;;;;;;4956586;28;5225;-65
2024/02/10 12:26:46;;;;;;;;;;;;;;;;;;4958543;28;4547;-67
2024/02/10 12:29:12;;;;;;;;;;;;;;;;;;4954339;28;4720;-69
2024/02/10 12:31:39;;;;;;;;;;;;;;;;;;4941797;28;4749;-68
2024/02/10 12:34:04;;;;;;;;;;;;;;;;;;4943824;28;3578;-69
2024/02/10 12:36:33;;;;;;;;;;;;;;;;;;4959420;28;5019;-69
2024/02/10 12:38:58;;;;;;;;;;;;;;;;;;4946315;28;4765;-69
2024/02/10 12:41:23;;;;;;;;;;;;;;;;;;4934067;28;4552;-68
2024/02/10 12:43:50;;;;;;;;;;;;;;;;;;4940073;28;5209;-68
2024/02/10 12:46:15;;;;;;;;;;;;;;;;;;4962786;28;3533;-68
2024/02/10 12:48:41;;;;;;;;;;;;;;;;;;4965088;28;5179;-69
2024/02/10 12:51:07;;;;;;;;;;;;;;;;;;4960082;28;4518;-69
2024/02/10 12:53:33;;;;;;;;;;;;;;;;;;4964863;28;4580;-69
2024/02/10 12:55:59;;;;;;;;;;;;;;;;;;4964442;28;4554;-69
2024/02/10 12:58:26;;;;;;;;;;;;;;;;;;4967587;28;4728;-69
2024/02/10 13:00:55;;;;;;;;;;;;;;;;;;4966310;28;3419;-69
2024/02/10 13:03:20;;;;;;;;;;;;;;;;;;4959181;28;5142;-69
2024/02/10 13:05:46;;;;;;;;;;;;;;;;;;4964832;28;4547;-68
2024/02/10 13:08:11;;;;;;;;;;;;;;;;;;4967734;28;5047;-68
2024/02/10 13:10:36;;;;;;;;;;;;;;;;;;4966402;28;5225;-68
2024/02/10 13:13:04;;;;;;;;;;;;;;;;;;4961996;28;999;-68
2024/02/10 13:15:33;;;;;;;;;;;;;;;;;;4967633;28;4566;-68
2024/02/10 13:17:58;;;;;;;;;;;;;;;;;;4965263;28;5130;-68
2024/02/10 13:20:25;;;;;;;;;;;;;;;;;;4964446;28;5261;-68
2024/02/10 13:22:51;;;;;;;;;;;;;;;;;;4967482;28;4511;-68
2024/02/10 13:25:16;;;;;;;;;;;;;;;;;;4965958;28;1042;-69
2024/02/10 13:27:42;;;;;;;;;;;;;;;;;;4966625;28;5123;-69
2024/02/10 13:30:08;;;;;;;;;;;;;;;;;;4965917;28;5133;-69
2024/02/10 13:32:33;;;;;;;;;;;;;;;;;;4961801;28;4991;-69
2024/02/10 13:34:59;;;;;;;;;;;;;;;;;;4965722;28;5645;-69
2024/02/10 14:04:40;;;;;;;;;;;;;;;;;;4966542;28;4724;-69
2024/02/10 14:07:43;;;;;;;;;;;;;;;;;;4964825;28;3544;-69
2024/02/10 14:09:55;;;;;;;;;;;;;;;;;;4965747;28;4551;-69
2024/02/10 14:12:20;;;;;;;;;;;;;;;;;;4963988;28;4649;-68
2024/02/10 14:14:46;;;;;;;;;;;;;;;;;;4967068;28;5146;-68
2024/02/10 14:17:14;;;;;;;;;;;;;;;;;;4962145;28;5163;-68
2024/02/10 14:19:50;;;;;;;;;;;;;;;;;;4964029;28;5084;-68
2024/02/10 14:22:16;;;;;;;;;;;;;;;;;;4950688;28;1163;-70
2024/02/10 14:24:45;;;;;;;;;;;;;;;;;;4959515;28;5804;-68
2024/02/10 14:27:14;;;;;;;;;;;;;;;;;;4966460;28;4474;-70
2024/02/10 14:29:40;;;;;;;;;;;;;;;;;;4968864;28;5198;-68
2024/02/10 14:32:13;;;;;;;;;;;;;;;;;;4970084;28;5147;-70
2024/02/10 14:40:31;;;;;;;;;;;;;;;;;;4949725;28;1518;-68
2024/02/10 14:42:56;;;;;;;;;;;;;;;;;;4966209;28;5173;-68
2024/02/10 14:45:22;;;;;;;;;;;;;;;;;;4967226;28;4510;-69
2024/02/10 14:47:47;;;;;;;;;;;;;;;;;;4969019;28;5063;-67
2024/02/10 14:50:12;;;;;;;;;;;;;;;;;;4962792;28;4617;-67
2024/02/10 14:52:41;;;;;;;;;;;;;;;;;;4969537;28;5917;-68
2024/02/10 14:55:07;;;;;;;;;;;;;;;;;;4963122;28;1113;-70
2024/02/10 14:57:32;;;;;;;;;;;;;;;;;;4969858;28;4951;-70
2024/02/10 14:59:57;;;;;;;;;;;;;;;;;;4968419;28;5028;-70
2024/02/10 15:02:25;;;;;;;;;;;;;;;;;;4963346;28;5065;-70
2024/02/10 15:04:51;;;;;;;;;;;;;;;;;;4948833;28;4585;-68
2024/02/10 15:07:21;;;;;;;;;;;;;;;;;;4969045;28;3519;-67
2024/02/10 15:09:46;;;;;;;;;;;;;;;;;;4964488;28;4678;-70
2024/02/10 15:12:14;;;;;;;;;;;;;;;;;;4966858;28;4674;-69
2024/02/10 15:14:39;;;;;;;;;;;;;;;;;;4964350;28;5097;-70
2024/02/10 15:17:13;;;;;;;;;;;;;;;;;;4963566;28;4940;-69
2024/02/10 15:19:38;;;;;;;;;;;;;;;;;;4940220;28;5170;-70
2024/02/10 15:22:04;;;;;;;;;;;;;;;;;;4962200;28;3484;-69
2024/02/10 15:24:29;;;;;;;;;;;;;;;;;;4967465;28;4682;-69
2024/02/10 15:26:54;;;;;;;;;;;;;;;;;;4968731;28;4923;-69
2024/02/10 15:29:20;;;;;;;;;;;;;;;;;;4960569;28;4556;-69
2024/02/10 15:31:45;;;;;;;;;;;;;;;;;;4967476;28;5186;-69
2024/02/10 15:34:11;;;;;;;;;;;;;;;;;;4968326;28;3055;-70
2024/02/10 15:36:38;;;;;;;;;;;;;;;;;;4965631;28;5218;-70
2024/02/10 15:39:05;;;;;;;;;;;;;;;;;;4968684;28;4586;-70
2024/02/10 15:41:33;;;;;;;;;;;;;;;;;;4967531;28;5120;-70
2024/02/10 15:43:59;;;;;;;;;;;;;;;;;;4967495;28;5129;-70
2024/02/10 15:46:26;;;;;;;;;;;;;;;;;;4949187;28;4675;-69
2024/02/10 15:48:53;;;;;;;;;;;;;;;;;;4967553;28;3668;-69
2024/02/10 15:51:19;;;;;;;;;;;;;;;;;;4965936;28;4966;-70
2024/02/10 15:53:44;;;;;;;;;;;;;;;;;;4958542;28;4642;-69
2024/02/10 15:56:12;;;;;;;;;;;;;;;;;;4963725;28;5164;-69
2024/02/10 15:58:42;;;;;;;;;;;;;;;;;;4965527;28;5282;-69
2024/02/10 16:01:15;;;;;;;;;;;;;;;;;;4969370;28;1215;-69
2024/02/10 16:03:40;;;;;;;;;;;;;;;;;;4964273;28;5124;-69
2024/02/10 16:06:06;;;;;;;;;;;;;;;;;;4964148;28;4567;-70
2024/02/10 16:08:31;;;;;;;;;;;;;;;;;;4964978;28;4684;-70
2024/02/10 16:10:56;;;;;;;;;;;;;;;;;;4965582;28;5182;-70
2024/02/10 16:13:24;;;;;;;;;;;;;;;;;;4964167;28;5131;-70
2024/02/10 16:15:51;;;;;;;;;;;;;;;;;;4965584;28;1059;-69
2024/02/10 16:18:17;;;;;;;;;;;;;;;;;;4966539;28;4948;-69
2024/02/10 16:20:49;;;;;;;;;;;;;;;;;;4957245;28;5141;-69
2024/02/10 16:23:15;;;;;;;;;;;;;;;;;;4945950;28;5142;-69
2024/02/10 16:25:40;;;;;;;;;;;;;;;;;;4964522;28;5201;-69
2024/02/10 16:28:06;;;;;;;;;;;;;;;;;;4968024;28;2115;-69
2024/02/10 16:30:32;;;;;;;;;;;;;;;;;;4968245;28;4997;-69
2024/02/10 16:32:57;;;;;;;;;;;;;;;;;;4965954;28;5150;-69
2024/02/10 16:35:27;;;;;;;;;;;;;;;;;;4965361;28;4549;-69
2024/02/10 16:37:56;;;;;;;;;;;;;;;;;;4959998;28;4576;-70
2024/02/10 16:40:27;;;;;;;;;;;;;;;;;;4964003;28;4611;-69
2024/02/10 16:42:54;;;;;;;;;;;;;;;;;;4961387;28;3509;-69
2024/02/10 16:45:22;;;;;;;;;;;;;;;;;;4943479;28;4547;-69
2024/02/10 16:47:47;;;;;;;;;;;;;;;;;;4960405;28;5046;-61
2024/02/10 16:50:12;;;;;;;;;;;;;;;;;;4955600;28;5346;-63
2024/02/10 16:52:38;;;;;;;;;;;;;;;;;;4936435;28;4717;-63
2024/02/10 16:55:10;;;;;;;;;;;;;;;;;;4963140;28;3617;-63
2024/02/10 16:57:45;;;;;;;;;;;;;;;;;;4955354;28;4950;-63
2024/02/10 17:00:11;;;;;;;;;;;;;;;;;;4963939;28;5210;-63
2024/02/10 17:02:37;;;;;;;;;;;;;;;;;;4964583;28;5123;-63
2024/02/10 17:05:05;;;;;;;;;;;;;;;;;;4959813;28;5183;-63
2024/02/10 17:07:31;;;;;;;;;;;;;;;;;;4962654;28;5487;-63
2024/02/10 17:09:56;;;;;;;;;;;;;;;;;;4958397;28;3505;-63
2024/02/10 17:12:24;;;;;;;;;;;;;;;;;;4967993;28;4972;-62
2024/02/10 17:14:49;;;;;;;;;;;;;;;;;;4965686;28;5105;-63
2024/02/10 17:17:18;;;;;;;;;;;;;;;;;;4967729;28;5075;-62
2024/02/10 17:19:47;;;;;;;;;;;;;;;;;;4968773;28;4715;-63
2024/02/10 17:22:15;;;;;;;;;;;;;;;;;;4970920;28;3573;-63
2024/02/10 17:24:41;;;;;;;;;;;;;;;;;;4960554;28;4520;-63
2024/02/10 17:27:06;;;;;;;;;;;;;;;;;;4966664;28;5084;-64
2024/02/10 17:29:34;;;;;;;;;;;;;;;;;;4963250;28;4718;-63